Time;durP1;ratioP1;P1;durP2;ratioP2;P2;SDS_P1;SDS_P2;PMS_P1;PMS_P2;Temp;Humidity;BMP_temperature;BMP_pressure;BME280_temperature;BME280_humidity;BME280_pressure;Samples;Min_cycle;Max_cycle;Signal;HPM_P1;HPM_P2
2023/12/11 00:01:57;;;;;;;0.40;0.40;;;8.90;99.90;;;;;;5028099;28;20069;-74
2023/12/11 00:04:23;;;;;;;0.80;0.80;;;8.80;99.90;;;;;;5022329;28;20057;-74
2023/12/11 00:06:48;;;;;;;0.40;0.40;;;8.80;99.90;;;;;;5019455;28;20053;-74
2023/12/11 00:09:14;;;;;;;0.60;0.60;;;8.80;99.90;;;;;;5025365;28;20517;-74
2023/12/11 00:11:39;;;;;;;0.60;0.60;;;8.70;99.90;;;;;;5021345;28;20049;-74
2023/12/11 00:14:06;;;;;;;0.75;0.75;;;8.70;99.90;;;;;;5020245;28;20048;-74
2023/12/11 00:16:32;;;;;;;6.97;1.02;;;8.60;99.90;;;;;;5029069;28;20056;-74
2023/12/11 00:18:57;;;;;;;0.70;0.70;;;8.60;99.90;;;;;;5027256;28;20045;-75
2023/12/11 00:21:23;;;;;;;0.40;0.40;;;8.60;99.90;;;;;;5027821;28;20833;-74
2023/12/11 00:23:49;;;;;;;0.50;0.50;;;8.60;99.90;;;;;;5015257;28;20103;-74
2023/12/11 00:26:14;;;;;;;0.50;0.50;;;8.50;99.90;;;;;;5020682;28;20061;-74
2023/12/11 00:28:41;;;;;;;1.73;1.58;;;8.50;99.90;;;;;;5024795;28;20049;-74
2023/12/11 00:31:07;;;;;;;0.68;0.68;;;8.40;99.90;;;;;;5023852;28;20046;-74
2023/12/11 00:33:35;;;;;;;1.02;1.02;;;8.40;99.90;;;;;;5027210;28;20053;-74
2023/12/11 00:36:01;;;;;;;0.85;0.85;;;8.40;99.90;;;;;;5022152;28;20049;-74
2023/12/11 00:38:26;;;;;;;1.75;0.90;;;8.40;99.90;;;;;;5019858;28;20108;-74
2023/12/11 00:40:53;;;;;;;0.70;0.70;;;8.40;99.90;;;;;;5012861;28;20038;-74
2023/12/11 00:43:18;;;;;;;5.97;2.58;;;8.40;99.90;;;;;;5014459;28;20422;-74
2023/12/11 00:45:44;;;;;;;2.85;2.45;;;8.30;99.90;;;;;;5016895;28;20052;-74
2023/12/11 00:48:10;;;;;;;0.65;0.65;;;8.40;99.90;;;;;;5014802;28;20030;-74
2023/12/11 00:50:35;;;;;;;1.38;1.27;;;8.30;99.90;;;;;;5023766;28;21291;-74
2023/12/11 00:53:01;;;;;;;0.50;0.50;;;8.30;99.90;;;;;;5019076;28;20139;-73
2023/12/11 00:55:26;;;;;;;2.20;1.65;;;8.30;99.90;;;;;;5005328;28;20129;-74
2023/12/11 00:57:52;;;;;;;0.82;0.82;;;8.30;99.90;;;;;;5021553;28;20045;-74
2023/12/11 01:00:18;;;;;;;0.63;0.63;;;8.30;99.90;;;;;;5013062;28;20038;-74
2023/12/11 01:02:43;;;;;;;0.82;0.52;;;8.20;99.90;;;;;;5020147;28;20817;-74
2023/12/11 01:05:09;;;;;;;1.02;0.95;;;8.20;99.90;;;;;;5021144;28;20124;-74
2023/12/11 01:07:35;;;;;;;0.68;0.68;;;8.20;99.90;;;;;;5022551;28;20049;-74
2023/12/11 01:10:01;;;;;;;0.35;0.35;;;8.30;99.90;;;;;;5019320;28;20044;-73
2023/12/11 01:12:27;;;;;;;1.10;1.08;;;8.30;99.90;;;;;;5024464;28;20057;-74
2023/12/11 01:14:53;;;;;;;0.50;0.50;;;8.30;99.90;;;;;;5020931;28;20056;-73
2023/12/11 01:17:18;;;;;;;2.75;0.90;;;8.30;99.90;;;;;;5023693;28;20064;-73
2023/12/11 01:19:44;;;;;;;1.08;0.95;;;8.30;99.90;;;;;;5023882;28;20053;-74
2023/12/11 01:22:10;;;;;;;0.40;0.40;;;8.20;99.90;;;;;;5019845;28;20050;-73
2023/12/11 01:24:35;;;;;;;0.77;0.77;;;8.30;99.90;;;;;;5019468;28;20483;-74
2023/12/11 01:27:01;;;;;;;0.50;0.50;;;8.20;99.90;;;;;;5017734;28;20050;-73
2023/12/11 01:29:27;;;;;;;0.73;0.73;;;8.30;99.90;;;;;;5015536;28;20077;-74
2023/12/11 01:31:53;;;;;;;1.67;0.65;;;8.30;99.90;;;;;;5017904;28;20187;-74
2023/12/11 01:34:18;;;;;;;0.60;0.60;;;8.20;99.90;;;;;;5014171;28;20050;-74
2023/12/11 01:36:44;;;;;;;0.43;0.43;;;8.20;99.90;;;;;;5016139;28;20056;-73
2023/12/11 01:39:09;;;;;;;0.45;0.45;;;8.20;99.90;;;;;;5011544;28;20513;-74
2023/12/11 01:41:35;;;;;;;1.05;1.05;;;8.30;99.90;;;;;;5008726;28;20085;-73
2023/12/11 01:44:01;;;;;;;0.77;0.77;;;8.30;99.90;;;;;;5010844;28;20049;-74
2023/12/11 01:46:27;;;;;;;6.18;0.98;;;8.30;99.90;;;;;;5017957;28;20095;-74
2023/12/11 01:48:53;;;;;;;1.45;0.88;;;8.30;99.90;;;;;;5023978;28;20049;-74
2023/12/11 01:51:19;;;;;;;3.13;1.63;;;8.30;99.90;;;;;;5014001;28;20049;-74
2023/12/11 01:53:48;;;;;;;1.02;0.80;;;8.40;99.90;;;;;;5019238;28;20053;-74
2023/12/11 01:56:18;;;;;;;;;;;8.40;99.90;;;;;;5023375;28;20045;-73
2023/12/11 01:58:45;;;;;;;0.60;0.60;;;8.40;99.90;;;;;;5019320;28;19924;-74
2023/12/11 02:01:13;;;;;;;0.82;0.82;;;8.40;99.90;;;;;;5019727;28;20038;-73
2023/12/11 02:03:40;;;;;;;0.85;0.85;;;8.40;99.90;;;;;;5024830;28;20049;-73
2023/12/11 02:06:06;;;;;;;0.40;0.40;;;8.40;99.90;;;;;;5011174;28;20042;-73
2023/12/11 02:08:32;;;;;;;0.98;0.98;;;8.40;99.90;;;;;;5016472;28;20058;-73
2023/12/11 02:10:58;;;;;;;0.70;0.70;;;8.40;99.90;;;;;;5020335;28;20048;-74
2023/12/11 02:13:24;;;;;;;0.60;0.60;;;8.40;99.90;;;;;;5023315;28;20069;-73
2023/12/11 02:15:51;;;;;;;0.68;0.68;;;8.40;99.90;;;;;;5026871;28;20184;-73
2023/12/11 02:18:16;;;;;;;0.50;0.50;;;8.40;99.90;;;;;;5017832;28;20057;-74
2023/12/11 02:20:43;;;;;;;0.60;0.60;;;8.40;99.90;;;;;;5023338;28;20490;-73
2023/12/11 02:23:23;;;;;;;2.05;0.98;;;8.40;99.90;;;;;;5026198;28;20042;-73
2023/12/11 02:25:59;;;;;;;1.73;1.33;;;8.40;99.90;;;;;;5009893;28;20053;-73
2023/12/11 02:28:25;;;;;;;0.47;0.47;;;8.40;99.90;;;;;;5019428;28;20085;-73
2023/12/11 02:30:51;;;;;;;0.40;0.40;;;8.30;99.90;;;;;;5022973;28;20042;-73
2023/12/11 02:33:17;;;;;;;0.60;0.60;;;8.30;99.90;;;;;;5018779;28;20064;-73
2023/12/11 02:35:45;;;;;;;3.33;1.55;;;8.30;99.90;;;;;;5019676;28;20506;-73
2023/12/11 02:38:11;;;;;;;0.50;0.50;;;8.30;99.90;;;;;;5022679;28;20068;-73
2023/12/11 02:40:36;;;;;;;0.68;0.68;;;8.40;99.90;;;;;;5016318;28;20387;-73
2023/12/11 02:43:02;;;;;;;0.88;0.88;;;8.40;99.90;;;;;;5020209;28;20037;-73
2023/12/11 02:45:28;;;;;;;0.63;0.63;;;8.40;99.90;;;;;;5026436;28;20124;-73
2023/12/11 02:48:02;;;;;;;0.60;0.60;;;8.40;99.90;;;;;;5024146;28;20048;-73
2023/12/11 02:50:31;;;;;;;1.02;0.98;;;8.40;99.90;;;;;;5023423;28;20089;-73
2023/12/11 02:52:57;;;;;;;0.30;0.30;;;8.40;99.90;;;;;;5022764;28;20057;-73
2023/12/11 02:55:23;;;;;;;1.25;1.25;;;8.40;99.90;;;;;;5016686;28;20566;-73
2023/12/11 02:57:49;;;;;;;2.35;1.20;;;8.50;99.90;;;;;;5026858;28;20050;-73
2023/12/11 03:00:15;;;;;;;0.65;0.65;;;8.50;99.90;;;;;;5026266;28;20479;-73
2023/12/11 03:02:40;;;;;;;1.27;0.95;;;8.50;99.90;;;;;;5025643;28;20077;-73
2023/12/11 03:05:06;;;;;;;0.65;0.63;;;8.50;99.90;;;;;;5025304;28;20076;-73
2023/12/11 03:07:32;;;;;;;1.67;1.23;;;8.50;99.90;;;;;;5014316;28;20136;-73
2023/12/11 03:09:58;;;;;;;0.70;0.70;;;8.50;99.90;;;;;;5021401;28;20077;-73
2023/12/11 03:12:23;;;;;;;2.28;1.85;;;8.60;99.90;;;;;;5012058;28;20046;-73
2023/12/11 03:14:49;;;;;;;1.30;1.25;;;8.60;99.90;;;;;;5005065;28;20037;-73
2023/12/11 03:17:14;;;;;;;0.95;0.95;;;8.60;99.90;;;;;;5013166;28;20129;-73
2023/12/11 03:19:40;;;;;;;0.63;0.63;;;8.60;99.90;;;;;;5023075;28;20180;-73
2023/12/11 03:22:06;;;;;;;0.40;0.40;;;8.60;99.90;;;;;;5026013;28;20052;-73
2023/12/11 03:24:31;;;;;;;0.63;0.63;;;8.70;99.90;;;;;;5024140;28;20054;-73
2023/12/11 03:26:57;;;;;;;0.70;0.70;;;8.60;99.90;;;;;;5025620;28;20556;-73
2023/12/11 03:29:22;;;;;;;0.65;0.65;;;8.60;99.90;;;;;;5013405;28;20046;-74
2023/12/11 03:31:48;;;;;;;0.95;0.95;;;8.60;99.90;;;;;;5010477;28;20042;-73
2023/12/11 03:34:14;;;;;;;3.45;0.93;;;8.70;99.90;;;;;;5014387;28;20041;-73
2023/12/11 03:36:39;;;;;;;0.95;0.82;;;8.70;99.90;;;;;;5014000;28;20048;-73
2023/12/11 03:39:07;;;;;;;5.25;2.83;;;8.70;99.90;;;;;;5014711;28;20121;-74
2023/12/11 03:41:33;;;;;;;1.00;0.77;;;8.70;99.90;;;;;;5014740;28;20494;-74
2023/12/11 03:43:59;;;;;;;1.65;1.55;;;8.70;99.90;;;;;;5024569;28;20046;-74
2023/12/11 03:46:24;;;;;;;2.65;1.40;;;8.70;99.90;;;;;;5013817;28;20042;-74
2023/12/11 03:48:50;;;;;;;1.60;0.85;;;8.80;99.90;;;;;;5010556;28;20052;-73
2023/12/11 03:51:15;;;;;;;1.15;1.15;;;8.80;99.90;;;;;;5023267;28;20048;-74
2023/12/11 03:53:41;;;;;;;0.63;0.63;;;8.80;99.90;;;;;;5020443;28;20484;-74
2023/12/11 03:56:08;;;;;;;1.70;1.10;;;8.80;99.90;;;;;;5021108;28;20057;-73
2023/12/11 03:58:33;;;;;;;0.45;0.45;;;8.80;99.90;;;;;;5024079;28;20042;-73
2023/12/11 04:00:59;;;;;;;1.05;1.05;;;8.80;99.90;;;;;;5016605;28;20088;-74
2023/12/11 04:03:24;;;;;;;0.57;0.57;;;8.80;99.90;;;;;;5013614;28;20056;-74
2023/12/11 04:05:50;;;;;;;2.67;1.15;;;8.80;99.90;;;;;;5016173;28;20042;-74
2023/12/11 04:08:16;;;;;;;0.70;0.70;;;8.70;99.90;;;;;;5017300;28;20156;-74
2023/12/11 04:10:42;;;;;;;0.50;0.50;;;8.80;99.90;;;;;;5019377;28;20084;-73
2023/12/11 04:13:07;;;;;;;0.70;0.70;;;8.80;99.90;;;;;;5009160;28;20463;-73
2023/12/11 04:15:33;;;;;;;0.95;0.73;;;8.80;99.90;;;;;;5017601;28;20050;-73
2023/12/11 04:17:59;;;;;;;0.50;0.50;;;8.80;99.90;;;;;;5017174;28;20458;-73
2023/12/11 04:20:24;;;;;;;0.77;0.77;;;8.80;99.90;;;;;;5017849;28;20049;-73
2023/12/11 04:22:52;;;;;;;0.50;0.50;;;8.80;99.90;;;;;;5022933;28;20108;-73
2023/12/11 04:25:18;;;;;;;12.07;1.88;;;8.80;99.90;;;;;;5015604;28;20423;-73
2023/12/11 04:27:45;;;;;;;2.20;1.10;;;8.80;99.90;;;;;;5016825;28;20046;-73
2023/12/11 04:30:12;;;;;;;1.23;1.23;;;8.80;99.90;;;;;;5013350;28;20120;-73
2023/12/11 04:32:37;;;;;;;0.60;0.60;;;8.80;99.90;;;;;;5015971;28;20095;-73
2023/12/11 04:35:04;;;;;;;0.70;0.63;;;8.80;99.90;;;;;;5018551;28;20049;-73
2023/12/11 04:37:29;;;;;;;0.52;0.52;;;8.80;99.90;;;;;;5017967;28;20737;-73
2023/12/11 04:39:55;;;;;;;2.63;1.67;;;8.80;99.90;;;;;;5016925;28;20046;-74
2023/12/11 04:42:21;;;;;;;0.60;0.60;;;8.80;99.90;;;;;;5017109;28;20092;-73
2023/12/11 04:44:46;;;;;;;2.40;1.38;;;8.80;99.90;;;;;;5024539;28;20054;-74
2023/12/11 04:47:12;;;;;;;0.40;0.40;;;8.80;99.90;;;;;;5021176;28;20534;-74
2023/12/11 04:49:37;;;;;;;4.95;0.90;;;8.80;99.90;;;;;;5018216;28;20060;-74
2023/12/11 04:52:03;;;;;;;1.58;0.70;;;8.80;99.90;;;;;;5015547;28;20050;-74
2023/12/11 04:54:29;;;;;;;7.53;1.10;;;8.80;99.90;;;;;;5016873;28;20078;-74
2023/12/11 04:56:55;;;;;;;1.08;1.08;;;8.80;99.90;;;;;;5027271;28;20083;-74
2023/12/11 04:59:20;;;;;;;0.65;0.65;;;8.80;99.90;;;;;;5026404;28;20053;-74
2023/12/11 05:01:46;;;;;;;2.05;1.15;;;8.80;99.90;;;;;;5018357;28;20063;-74
2023/12/11 05:04:12;;;;;;;1.48;1.00;;;8.70;99.90;;;;;;5018884;28;20084;-74
2023/12/11 05:06:37;;;;;;;1.65;1.25;;;8.80;99.90;;;;;;5024714;28;20042;-74
2023/12/11 05:09:03;;;;;;;0.90;0.90;;;8.70;99.90;;;;;;5026298;28;20095;-74
2023/12/11 05:11:28;;;;;;;1.15;1.15;;;8.70;99.90;;;;;;5026513;28;20053;-74
2023/12/11 05:13:54;;;;;;;0.70;0.70;;;8.70;99.90;;;;;;5021893;28;20041;-74
2023/12/11 05:16:20;;;;;;;2.28;0.95;;;8.70;99.90;;;;;;5021449;28;20045;-74
2023/12/11 05:18:46;;;;;;;0.50;0.50;;;8.70;99.90;;;;;;5017287;28;20046;-74
2023/12/11 05:21:11;;;;;;;1.98;1.10;;;8.70;99.90;;;;;;5023298;28;20407;-74
2023/12/11 05:23:37;;;;;;;7.85;1.85;;;8.70;99.90;;;;;;5013467;28;20133;-74
2023/12/11 05:26:03;;;;;;;0.50;0.50;;;8.70;99.90;;;;;;5013684;28;20065;-74
2023/12/11 05:28:29;;;;;;;0.60;0.60;;;8.60;99.90;;;;;;5014104;28;20050;-74
2023/12/11 05:30:54;;;;;;;0.40;0.40;;;8.60;99.90;;;;;;5013017;28;20042;-74
2023/12/11 05:33:20;;;;;;;2.13;0.57;;;8.60;99.90;;;;;;5023833;28;20052;-74
2023/12/11 05:35:46;;;;;;;0.50;0.50;;;8.60;99.90;;;;;;5024977;28;20053;-73
2023/12/11 05:38:11;;;;;;;1.27;1.15;;;8.60;99.90;;;;;;5013480;28;20205;-73
2023/12/11 05:40:37;;;;;;;2.75;1.50;;;8.60;99.90;;;;;;5017680;28;20137;-73
2023/12/11 05:43:03;;;;;;;0.95;0.93;;;8.60;99.90;;;;;;5023985;28;20057;-74
2023/12/11 05:45:29;;;;;;;0.45;0.45;;;8.60;99.90;;;;;;5029363;28;20394;-74
2023/12/11 05:47:54;;;;;;;0.82;0.82;;;8.60;99.90;;;;;;5023311;28;20049;-74
2023/12/11 05:50:20;;;;;;;3.08;2.80;;;8.60;99.90;;;;;;5027107;28;20050;-74
2023/12/11 05:52:45;;;;;;;0.73;0.73;;;8.60;99.90;;;;;;5015414;28;20637;-74
2023/12/11 05:55:11;;;;;;;6.90;1.13;;;8.60;99.90;;;;;;5020850;28;20132;-75
2023/12/11 05:57:37;;;;;;;0.60;0.60;;;8.70;99.90;;;;;;5012239;28;20060;-74
2023/12/11 06:00:04;;;;;;;0.63;0.63;;;8.70;99.90;;;;;;5028782;28;20045;-74
2023/12/11 06:02:30;;;;;;;1.90;0.93;;;8.70;99.90;;;;;;5018871;28;20129;-75
2023/12/11 06:04:55;;;;;;;7.88;1.50;;;8.70;99.90;;;;;;5020692;28;20477;-75
2023/12/11 06:07:21;;;;;;;8.65;2.10;;;8.70;99.90;;;;;;5014778;28;20838;-74
2023/12/11 06:09:46;;;;;;;0.82;0.82;;;8.70;99.90;;;;;;5010465;28;20108;-74
2023/12/11 06:12:12;;;;;;;2.13;1.38;;;8.70;99.90;;;;;;5015451;28;20720;-74
2023/12/11 06:14:42;;;;;;;0.70;0.68;;;8.70;99.90;;;;;;5014984;28;20081;-74
2023/12/11 06:17:08;;;;;;;0.95;0.93;;;8.70;99.90;;;;;;5012561;28;20081;-74
2023/12/11 06:19:34;;;;;;;0.88;0.80;;;8.70;99.90;;;;;;5014993;28;20088;-74
2023/12/11 06:21:59;;;;;;;0.40;0.40;;;8.70;99.90;;;;;;5017536;28;20425;-74
2023/12/11 06:24:25;;;;;;;0.40;0.40;;;8.70;99.90;;;;;;5014122;28;20059;-74
2023/12/11 06:26:51;;;;;;;1.83;1.73;;;8.70;99.90;;;;;;5013834;28;20454;-74
2023/12/11 06:29:16;;;;;;;0.50;0.50;;;8.70;99.90;;;;;;5023586;28;20049;-74
2023/12/11 06:31:42;;;;;;;1.23;1.13;;;8.70;99.90;;;;;;5023181;28;20510;-74
2023/12/11 06:34:07;;;;;;;0.47;0.47;;;8.80;99.90;;;;;;5026347;28;20899;-74
2023/12/11 06:36:33;;;;;;;0.75;0.75;;;8.70;99.90;;;;;;5026217;28;20064;-74
2023/12/11 06:38:59;;;;;;;1.48;1.38;;;8.80;99.90;;;;;;5025423;28;20037;-74
2023/12/11 06:41:24;;;;;;;0.60;0.60;;;8.80;99.90;;;;;;5025041;28;20053;-74
2023/12/11 06:43:54;;;;;;;0.40;0.40;;;8.80;99.90;;;;;;5018045;28;20529;-74
2023/12/11 06:46:20;;;;;;;2.85;1.15;;;8.80;99.90;;;;;;5011920;28;20570;-74
2023/12/11 06:48:46;;;;;;;1.42;1.00;;;8.80;99.90;;;;;;5016932;28;20177;-74
2023/12/11 06:51:17;;;;;;;0.98;0.98;;;8.80;99.90;;;;;;5027207;28;20144;-74
2023/12/11 06:53:43;;;;;;;0.63;0.63;;;8.80;99.90;;;;;;5014371;28;20359;-74
2023/12/11 06:56:15;;;;;;;0.80;0.80;;;8.80;99.90;;;;;;5016788;28;20046;-74
2023/12/11 06:58:41;;;;;;;1.15;1.02;;;8.80;99.90;;;;;;5020922;28;20438;-74
2023/12/11 07:01:09;;;;;;;2.20;0.60;;;8.80;99.90;;;;;;5027362;28;20061;-74
2023/12/11 07:03:35;;;;;;;9.68;1.10;;;8.70;99.90;;;;;;5019764;28;20415;-74
2023/12/11 07:06:00;;;;;;;1.17;0.88;;;8.80;99.90;;;;;;5014449;28;20045;-73
2023/12/11 07:08:27;;;;;;;0.63;0.63;;;8.80;99.90;;;;;;5014074;28;20620;-74
2023/12/11 07:10:52;;;;;;;1.52;1.42;;;8.80;99.90;;;;;;5019628;28;20049;-74
2023/12/11 07:13:18;;;;;;;1.15;1.10;;;8.80;99.90;;;;;;5024951;28;20534;-74
2023/12/11 07:15:44;;;;;;;11.50;1.15;;;8.80;99.90;;;;;;5018979;28;20053;-74
2023/12/11 07:18:13;;;;;;;0.63;0.63;;;8.70;99.90;;;;;;5019640;28;20096;-74
2023/12/11 07:20:40;;;;;;;0.65;0.65;;;8.80;99.90;;;;;;5012662;28;20075;-74
2023/12/11 07:23:07;;;;;;;2.03;1.10;;;8.80;99.90;;;;;;5015624;28;20042;-73
2023/12/11 07:25:33;;;;;;;0.50;0.50;;;8.80;99.90;;;;;;5020622;28;20069;-74
2023/12/11 07:27:59;;;;;;;0.55;0.55;;;8.80;99.90;;;;;;5012269;28;20162;-73
2023/12/11 07:30:26;;;;;;;4.75;1.35;;;8.80;99.90;;;;;;5009752;28;20531;-74
2023/12/11 07:32:51;;;;;;;0.73;0.73;;;8.80;99.90;;;;;;5017629;28;20129;-74
2023/12/11 07:35:17;;;;;;;0.95;0.93;;;8.80;99.90;;;;;;5013508;28;20133;-73
2023/12/11 07:37:43;;;;;;;0.70;0.68;;;8.80;99.90;;;;;;5012014;28;20175;-73
2023/12/11 07:40:09;;;;;;;0.47;0.47;;;8.80;99.90;;;;;;5018116;28;20045;-74
2023/12/11 07:42:35;;;;;;;0.88;0.88;;;8.80;99.90;;;;;;5018389;28;20061;-73
2023/12/11 07:45:04;;;;;;;0.70;0.70;;;8.80;99.90;;;;;;5016590;28;20050;-74
2023/12/11 07:47:32;;;;;;;0.60;0.60;;;8.70;99.90;;;;;;5014607;28;20111;-74
2023/12/11 07:49:58;;;;;;;6.03;1.20;;;8.70;99.90;;;;;;5015749;28;20172;-74
2023/12/11 07:52:27;;;;;;;0.80;0.80;;;8.70;99.90;;;;;;5013798;28;20045;-74
2023/12/11 07:54:53;;;;;;;0.70;0.70;;;8.70;99.90;;;;;;5021088;28;20100;-74
2023/12/11 07:57:19;;;;;;;2.63;1.45;;;8.70;99.90;;;;;;5016751;28;20057;-74
2023/12/11 07:59:44;;;;;;;1.40;1.25;;;8.70;99.90;;;;;;5027632;28;20832;-74
2023/12/11 08:02:10;;;;;;;2.08;0.70;;;8.70;99.90;;;;;;5013724;28;20037;-74
2023/12/11 08:04:39;;;;;;;0.70;0.70;;;8.70;99.90;;;;;;5015060;28;20103;-74
2023/12/11 08:07:05;;;;;;;0.40;0.40;;;8.70;99.90;;;;;;5016423;28;20064;-73
2023/12/11 08:09:39;;;;;;;0.63;0.63;;;8.70;99.90;;;;;;5019188;28;20557;-74
2023/12/11 08:12:05;;;;;;;0.68;0.50;;;8.70;99.90;;;;;;5021218;28;20674;-74
2023/12/11 08:14:31;;;;;;;0.60;0.60;;;8.70;99.90;;;;;;5013430;28;20592;-74
2023/12/11 08:16:58;;;;;;;0.60;0.60;;;8.70;99.90;;;;;;5027985;28;20154;-74
2023/12/11 08:19:25;;;;;;;0.40;0.40;;;8.70;99.90;;;;;;5021204;28;20501;-74
2023/12/11 08:21:51;;;;;;;0.40;0.40;;;8.70;99.90;;;;;;5009425;28;20116;-74
2023/12/11 08:24:17;;;;;;;0.90;0.85;;;8.70;99.90;;;;;;5020528;28;20045;-74
2023/12/11 08:26:43;;;;;;;2.05;0.57;;;8.70;99.90;;;;;;5013181;28;20046;-75
2023/12/11 08:29:09;;;;;;;0.50;0.50;;;8.70;99.90;;;;;;5026403;28;20591;-74
2023/12/11 08:31:35;;;;;;;0.93;0.93;;;8.70;99.90;;;;;;5025465;28;20081;-74
2023/12/11 08:34:01;;;;;;;0.63;0.63;;;8.70;99.90;;;;;;5021197;28;20481;-74
2023/12/11 08:36:26;;;;;;;0.50;0.50;;;8.70;99.90;;;;;;5028400;28;20414;-74
2023/12/11 08:38:53;;;;;;;0.30;0.30;;;8.70;99.90;;;;;;5027180;28;20049;-74
2023/12/11 08:41:19;;;;;;;0.50;0.50;;;8.70;99.90;;;;;;5027548;28;20053;-74
2023/12/11 08:43:46;;;;;;;0.40;0.40;;;8.70;99.90;;;;;;5011693;28;20049;-74
2023/12/11 08:46:12;;;;;;;2.88;0.82;;;8.70;99.90;;;;;;5017543;28;20128;-74
2023/12/11 08:48:38;;;;;;;0.50;0.50;;;8.70;99.90;;;;;;5026294;28;20132;-74
2023/12/11 08:51:04;;;;;;;0.50;0.50;;;8.70;99.90;;;;;;5015965;28;20068;-74
2023/12/11 08:53:30;;;;;;;0.50;0.50;;;8.70;99.90;;;;;;5027822;28;20045;-74
2023/12/11 08:55:55;;;;;;;0.52;0.52;;;8.70;99.90;;;;;;5023961;28;20521;-75
2023/12/11 08:58:21;;;;;;;0.40;0.40;;;8.70;99.90;;;;;;5024384;28;20088;-73
2023/12/11 09:00:47;;;;;;;0.43;0.43;;;8.70;99.90;;;;;;5020423;28;20061;-74
2023/12/11 09:03:13;;;;;;;0.40;0.40;;;8.70;99.90;;;;;;5018564;28;20573;-75
2023/12/11 09:05:38;;;;;;;0.57;0.57;;;8.70;99.90;;;;;;5010706;28;20087;-74
2023/12/11 09:08:04;;;;;;;0.52;0.52;;;8.70;99.90;;;;;;5011736;28;20499;-74
2023/12/11 09:10:30;;;;;;;4.05;1.35;;;8.70;99.90;;;;;;4999099;28;20140;-74
2023/12/11 09:12:56;;;;;;;0.50;0.50;;;8.80;99.90;;;;;;5013391;28;20042;-74
2023/12/11 09:15:22;;;;;;;0.85;0.85;;;8.80;99.90;;;;;;5022528;28;20051;-74
2023/12/11 09:17:47;;;;;;;0.70;0.70;;;8.80;99.90;;;;;;5010895;28;20041;-74
2023/12/11 09:20:14;;;;;;;0.50;0.50;;;8.80;99.90;;;;;;5019464;28;20096;-74
2023/12/11 09:22:40;;;;;;;0.50;0.50;;;8.80;99.90;;;;;;5020946;28;20180;-74
2023/12/11 09:25:06;;;;;;;2.42;0.80;;;8.90;99.90;;;;;;5021408;28;20092;-74
2023/12/11 09:27:32;;;;;;;0.60;0.60;;;8.90;99.90;;;;;;5017153;28;20116;-74
2023/12/11 09:29:59;;;;;;;0.40;0.40;;;8.90;99.90;;;;;;5015686;28;20164;-74
2023/12/11 09:32:24;;;;;;;0.80;0.80;;;8.90;99.90;;;;;;5014042;28;20041;-74
2023/12/11 09:34:51;;;;;;;0.52;0.52;;;8.90;99.90;;;;;;5030820;28;20115;-74
2023/12/11 09:37:19;;;;;;;0.50;0.50;;;8.90;99.90;;;;;;5012591;28;20052;-73
2023/12/11 09:39:46;;;;;;;0.50;0.50;;;8.90;99.90;;;;;;5020151;28;20045;-74
2023/12/11 09:42:14;;;;;;;0.50;0.50;;;9.00;99.90;;;;;;5021262;28;20398;-74
2023/12/11 09:44:50;;;;;;;0.40;0.40;;;9.00;99.90;;;;;;5013235;28;20076;-74
2023/12/11 09:47:25;;;;;;;0.30;0.30;;;9.00;99.90;;;;;;5011576;28;20057;-74
2023/12/11 09:49:51;;;;;;;0.50;0.50;;;9.10;99.90;;;;;;5018310;28;20045;-74
2023/12/11 09:52:18;;;;;;;0.40;0.40;;;9.10;99.90;;;;;;5016971;28;20556;-75
2023/12/11 09:54:43;;;;;;;0.40;0.40;;;9.20;99.90;;;;;;5025417;28;20193;-74
2023/12/11 09:57:14;;;;;;;0.38;0.38;;;9.20;99.90;;;;;;5015337;28;20125;-74
2023/12/11 09:59:43;;;;;;;0.50;0.50;;;9.30;99.90;;;;;;5021286;28;20552;-74
2023/12/11 10:02:17;;;;;;;0.75;0.75;;;9.30;99.90;;;;;;5021408;28;20041;-75
2023/12/11 10:05:04;;;;;;;0.40;0.40;;;9.30;99.90;;;;;;5015669;28;20450;-74
2023/12/11 10:07:32;;;;;;;0.50;0.50;;;9.30;99.90;;;;;;5011503;28;20053;-75
2023/12/11 10:09:59;;;;;;;0.40;0.40;;;9.30;99.90;;;;;;5022980;28;20057;-74
2023/12/11 10:12:24;;;;;;;0.40;0.40;;;9.30;99.90;;;;;;5016764;28;20084;-74
2023/12/11 10:15:01;;;;;;;0.40;0.40;;;9.40;99.90;;;;;;5025766;28;20443;-75
2023/12/11 10:17:27;;;;;;;0.40;0.40;;;9.40;99.90;;;;;;5014774;28;20060;-74
2023/12/11 10:19:52;;;;;;;0.40;0.40;;;9.40;99.90;;;;;;5014937;28;20049;-74
2023/12/11 10:22:31;;;;;;;0.50;0.50;;;9.40;99.90;;;;;;5022423;28;20569;-74
2023/12/11 10:24:57;;;;;;;;;;;9.40;99.90;;;;;;5017303;28;20057;-71
2023/12/11 10:27:26;;;;;;;0.30;0.30;;;9.40;99.90;;;;;;5025807;28;19921;-73
2023/12/11 10:30:11;;;;;;;0.68;0.63;;;9.40;99.90;;;;;;5001568;28;20535;-74
2023/12/11 10:32:37;;;;;;;0.40;0.40;;;9.50;99.90;;;;;;5019084;28;20053;-75
2023/12/11 10:35:05;;;;;;;0.40;0.40;;;9.40;99.90;;;;;;5014875;28;20045;-74
2023/12/11 10:37:31;;;;;;;0.50;0.50;;;9.50;99.90;;;;;;5022492;28;20045;-74
2023/12/11 10:39:58;;;;;;;0.40;0.40;;;9.50;99.90;;;;;;5018201;28;20052;-75
2023/12/11 10:42:24;;;;;;;0.95;0.60;;;9.50;99.90;;;;;;5016315;28;20050;-74
2023/12/11 10:44:51;;;;;;;0.50;0.50;;;9.50;99.90;;;;;;5012826;28;20053;-74
2023/12/11 10:47:18;;;;;;;0.50;0.50;;;9.50;99.90;;;;;;5022370;28;20049;-74
2023/12/11 10:49:44;;;;;;;0.43;0.43;;;9.50;99.90;;;;;;5014606;28;20050;-74
2023/12/11 10:52:10;;;;;;;0.68;0.68;;;9.50;99.90;;;;;;5019994;28;20421;-74
2023/12/11 10:54:37;;;;;;;0.45;0.45;;;9.50;99.90;;;;;;5010829;28;20041;-75
2023/12/11 10:57:07;;;;;;;0.40;0.40;;;9.50;99.90;;;;;;5015237;28;20265;-75
2023/12/11 10:59:34;;;;;;;0.40;0.40;;;9.60;99.90;;;;;;5020971;28;20049;-74
2023/12/11 11:02:01;;;;;;;0.40;0.40;;;9.50;99.90;;;;;;5007942;28;20121;-74
2023/12/11 11:04:32;;;;;;;1.75;1.65;;;9.60;99.90;;;;;;5020459;28;20060;-74
2023/12/11 11:07:07;;;;;;;0.47;0.47;;;9.60;99.90;;;;;;5014713;28;20693;-74
2023/12/11 11:09:44;;;;;;;0.40;0.40;;;9.70;99.90;;;;;;5018302;28;20423;-74
2023/12/11 11:12:27;;;;;;;0.30;0.30;;;9.70;99.90;;;;;;5007417;28;20053;-75
2023/12/11 11:14:53;;;;;;;0.40;0.40;;;9.70;99.90;;;;;;5016798;28;20045;-74
2023/12/11 11:17:19;;;;;;;0.40;0.40;;;9.80;99.90;;;;;;5017957;28;20114;-74
2023/12/11 11:20:13;;;;;;;0.40;0.40;;;9.70;99.90;;;;;;5016696;28;20507;-74
2023/12/11 11:22:39;;;;;;;0.40;0.40;;;9.70;99.90;;;;;;5022878;28;20625;-74
2023/12/11 11:25:30;;;;;;;0.50;0.50;;;9.60;99.90;;;;;;5017179;28;20046;-74
2023/12/11 11:27:56;;;;;;;0.52;0.45;;;9.60;99.90;;;;;;5013555;28;20053;-74
2023/12/11 11:30:41;;;;;;;0.45;0.45;;;9.60;99.90;;;;;;5027154;28;20052;-74
2023/12/11 11:33:08;;;;;;;0.50;0.50;;;9.60;99.90;;;;;;5018589;28;20107;-74
2023/12/11 11:35:53;;;;;;;0.47;0.47;;;9.50;99.90;;;;;;5013829;28;20513;-74
2023/12/11 11:38:21;;;;;;;0.43;0.43;;;9.50;99.90;;;;;;5017765;28;20049;-74
2023/12/11 11:40:48;;;;;;;0.70;0.70;;;9.50;99.90;;;;;;5021511;28;20060;-73
2023/12/11 11:43:14;;;;;;;0.63;0.63;;;9.50;99.90;;;;;;5022039;28;20084;-74
2023/12/11 11:45:40;;;;;;;0.50;0.50;;;9.40;99.90;;;;;;5017381;28;20053;-74
2023/12/11 11:48:06;;;;;;;0.45;0.45;;;9.40;99.90;;;;;;5011641;28;20514;-74
2023/12/11 11:50:32;;;;;;;0.50;0.50;;;9.30;99.90;;;;;;5017820;28;20438;-74
2023/12/11 11:53:08;;;;;;;0.50;0.50;;;9.30;99.90;;;;;;5022677;28;20383;-75
2023/12/11 11:55:37;;;;;;;0.55;0.55;;;9.30;99.90;;;;;;5025096;28;20549;-75
2023/12/11 11:58:16;;;;;;;0.40;0.40;;;9.30;99.90;;;;;;5020314;28;20049;-75
2023/12/11 12:00:42;;;;;;;0.60;0.60;;;9.30;99.90;;;;;;5027455;28;20045;-75
2023/12/11 12:03:11;;;;;;;0.50;0.50;;;9.30;99.90;;;;;;5029117;28;20049;-75
2023/12/11 12:05:52;;;;;;;0.40;0.40;;;9.30;99.90;;;;;;5028447;28;20049;-74
2023/12/11 12:08:18;;;;;;;0.65;0.65;;;9.30;99.90;;;;;;5018024;28;20057;-74
2023/12/11 12:10:43;;;;;;;0.98;0.98;;;9.30;99.90;;;;;;5023956;28;20068;-74
2023/12/11 12:13:09;;;;;;;0.50;0.50;;;9.30;99.90;;;;;;5024434;28;20088;-75
2023/12/11 12:15:49;;;;;;;0.50;0.50;;;9.20;99.90;;;;;;5024507;28;20084;-74
2023/12/11 12:18:15;;;;;;;0.40;0.40;;;9.20;99.90;;;;;;5020660;28;20057;-74
2023/12/11 12:20:40;;;;;;;0.50;0.50;;;9.20;99.90;;;;;;5017692;28;20530;-75
2023/12/11 12:23:06;;;;;;;0.60;0.60;;;9.20;99.90;;;;;;5018020;28;20089;-75
2023/12/11 12:25:33;;;;;;;0.60;0.60;;;9.20;99.90;;;;;;5017156;28;20103;-74
2023/12/11 12:28:06;;;;;;;0.50;0.50;;;9.20;99.90;;;;;;5026259;28;20528;-74
2023/12/11 12:30:33;;;;;;;0.65;0.65;;;9.20;99.90;;;;;;5015546;28;20175;-74
2023/12/11 12:33:00;;;;;;;3.60;0.60;;;9.20;99.90;;;;;;5018897;28;20056;-74
2023/12/11 12:35:27;;;;;;;4.70;1.20;;;9.20;99.90;;;;;;5023129;28;20057;-74
2023/12/11 12:37:55;;;;;;;0.40;0.40;;;9.20;99.90;;;;;;5014827;28;20527;-74
2023/12/11 12:40:21;;;;;;;2.08;1.13;;;9.20;99.90;;;;;;5020934;28;20398;-74
2023/12/11 12:42:47;;;;;;;1.45;1.13;;;9.10;99.90;;;;;;5022028;28;20045;-74
2023/12/11 12:45:34;;;;;;;0.43;0.43;;;9.10;99.90;;;;;;5019800;28;20093;-74
2023/12/11 12:48:00;;;;;;;1.20;1.10;;;9.10;99.90;;;;;;5011776;28;20042;-73
2023/12/11 12:50:30;;;;;;;0.40;0.40;;;9.10;99.90;;;;;;5017488;28;20041;-74
2023/12/11 12:53:10;;;;;;;0.45;0.45;;;9.00;99.90;;;;;;5017990;28;20045;-74
2023/12/11 12:55:36;;;;;;;0.50;0.50;;;9.00;99.90;;;;;;5015981;28;20050;-74
2023/12/11 12:58:03;;;;;;;0.38;0.38;;;9.00;99.90;;;;;;5013582;28;20045;-73